sensor_id;sensor_type;location;lat;lon;timestamp;pressure;altitude;pressure_sealevel;temperature;humidity
5812;BME280;2932;52.400;9.558;2023-04-10T00:00:59;101810.91;;;12.37;60.52
5812;BME280;2932;52.400;9.558;2023-04-10T00:03:26;101810.03;;;12.45;60.45
5812;BME280;2932;52.400;9.558;2023-04-10T00:05:52;101807.16;;;12.33;60.75
5812;BME280;2932;52.400;9.558;2023-04-10T00:08:21;101806.00;;;12.34;60.79
5812;BME280;2932;52.400;9.558;2023-04-10T00:10:47;101811.03;;;12.41;60.77
5812;BME280;2932;52.400;9.558;2023-04-10T00:13:12;101801.94;;;12.31;60.72
5812;BME280;2932;52.400;9.558;2023-04-10T00:15:38;101802.59;;;12.28;60.86
5812;BME280;2932;52.400;9.558;2023-04-10T00:18:03;101793.78;;;12.26;60.87
5812;BME280;2932;52.400;9.558;2023-04-10T00:20:28;101795.88;;;12.29;60.94
5812;BME280;2932;52.400;9.558;2023-04-10T00:22:54;101796.91;;;11.82;61.99
5812;BME280;2932;52.400;9.558;2023-04-10T00:25:19;101786.25;;;11.75;62.34
5812;BME280;2932;52.400;9.558;2023-04-10T00:27:44;101790.66;;;11.76;62.25
5812;BME280;2932;52.400;9.558;2023-04-10T00:30:10;101793.28;;;12.16;61.66
5812;BME280;2932;52.400;9.558;2023-04-10T00:32:35;101784.31;;;12.19;61.31
5812;BME280;2932;52.400;9.558;2023-04-10T00:35:01;101785.28;;;12.23;61.27
5812;BME280;2932;52.400;9.558;2023-04-10T00:37:26;101789.53;;;12.20;61.32
5812;BME280;2932;52.400;9.558;2023-04-10T00:39:52;101787.09;;;12.19;61.24
5812;BME280;2932;52.400;9.558;2023-04-10T00:42:17;101780.06;;;12.13;61.38
5812;BME280;2932;52.400;9.558;2023-04-10T00:44:43;101785.28;;;12.06;61.79
5812;BME280;2932;52.400;9.558;2023-04-10T00:47:08;101786.09;;;12.06;61.63
5812;BME280;2932;52.400;9.558;2023-04-10T00:49:34;101788.22;;;12.09;61.60
5812;BME280;2932;52.400;9.558;2023-04-10T00:52:00;101789.84;;;12.10;61.38
5812;BME280;2932;52.400;9.558;2023-04-10T00:54:25;101789.03;;;12.10;61.71
5812;BME280;2932;52.400;9.558;2023-04-10T00:56:51;101794.13;;;11.99;61.81
5812;BME280;2932;52.400;9.558;2023-04-10T00:59:16;101791.31;;;12.08;61.81
5812;BME280;2932;52.400;9.558;2023-04-10T01:01:42;101796.22;;;12.02;61.82
5812;BME280;2932;52.400;9.558;2023-04-10T01:04:08;101792.34;;;11.94;62.05
5812;BME280;2932;52.400;9.558;2023-04-10T01:07:14;101784.50;;;11.96;62.00
5812;BME280;2932;52.400;9.558;2023-04-10T01:15:21;101788.09;;;11.80;62.19
5812;BME280;2932;52.400;9.558;2023-04-10T01:17:58;101781.41;;;11.89;61.87
5812;BME280;2932;52.400;9.558;2023-04-10T01:20:30;101777.50;;;11.90;62.04
5812;BME280;2932;52.400;9.558;2023-04-10T01:23:11;101778.31;;;11.82;62.29
5812;BME280;2932;52.400;9.558;2023-04-10T01:25:58;101780.53;;;11.72;62.39
5812;BME280;2932;52.400;9.558;2023-04-10T01:31:18;101786.25;;;11.66;62.66
5812;BME280;2932;52.400;9.558;2023-04-10T01:33:49;101776.94;;;11.62;62.51
5812;BME280;2932;52.400;9.558;2023-04-10T01:36:20;101775.31;;;11.53;62.78
5812;BME280;2932;52.400;9.558;2023-04-10T01:38:47;101773.53;;;11.65;62.53
5812;BME280;2932;52.400;9.558;2023-04-10T01:41:15;101773.38;;;11.53;62.79
5812;BME280;2932;52.400;9.558;2023-04-10T01:43:41;101767.97;;;11.48;62.84
5812;BME280;2932;52.400;9.558;2023-04-10T01:46:07;101773.34;;;11.45;62.69
5812;BME280;2932;52.400;9.558;2023-04-10T01:48:32;101774.47;;;11.35;62.90
5812;BME280;2932;52.400;9.558;2023-04-10T01:51:01;101772.84;;;11.34;62.70
5812;BME280;2932;52.400;9.558;2023-04-10T01:53:29;101768.59;;;11.28;63.03
5812;BME280;2932;52.400;9.558;2023-04-10T01:55:55;101774.13;;;11.28;63.20
5812;BME280;2932;52.400;9.558;2023-04-10T01:58:21;101771.00;;;11.12;63.58
5812;BME280;2932;52.400;9.558;2023-04-10T02:00:47;101772.13;;;11.20;63.49
5812;BME280;2932;52.400;9.558;2023-04-10T02:03:12;101766.28;;;11.13;63.53
5812;BME280;2932;52.400;9.558;2023-04-10T02:06:13;101769.38;;;11.20;63.35
5812;BME280;2932;52.400;9.558;2023-04-10T02:08:44;101753.25;;;11.22;63.45
5812;BME280;2932;52.400;9.558;2023-04-10T02:11:20;101764.81;;;11.24;63.40
5812;BME280;2932;52.400;9.558;2023-04-10T02:13:48;101758.50;;;11.32;63.23
5812;BME280;2932;52.400;9.558;2023-04-10T02:16:14;101758.31;;;11.28;63.15
5812;BME280;2932;52.400;9.558;2023-04-10T02:18:44;101753.28;;;11.30;62.94
5812;BME280;2932;52.400;9.558;2023-04-10T02:21:10;101746.56;;;11.23;63.19
5812;BME280;2932;52.400;9.558;2023-04-10T02:23:36;101742.66;;;11.15;63.44
5812;BME280;2932;52.400;9.558;2023-04-10T02:26:08;101742.34;;;11.17;63.26
5812;BME280;2932;52.400;9.558;2023-04-10T02:28:33;101736.47;;;11.10;63.67
5812;BME280;2932;52.400;9.558;2023-04-10T02:30:58;101734.50;;;11.10;63.82
5812;BME280;2932;52.400;9.558;2023-04-10T02:33:24;101739.38;;;11.05;63.71
5812;BME280;2932;52.400;9.558;2023-04-10T02:35:49;101740.22;;;11.14;63.69
5812;BME280;2932;52.400;9.558;2023-04-10T02:38:14;101736.31;;;11.15;63.41
5812;BME280;2932;52.400;9.558;2023-04-10T02:40:40;101738.25;;;11.14;63.33
5812;BME280;2932;52.400;9.558;2023-04-10T02:43:05;101728.28;;;10.96;63.72
5812;BME280;2932;52.400;9.558;2023-04-10T02:45:30;101732.88;;;11.09;63.65
5812;BME280;2932;52.400;9.558;2023-04-10T02:47:57;101732.41;;;11.16;63.41
5812;BME280;2932;52.400;9.558;2023-04-10T02:50:22;101732.56;;;11.11;63.21
5812;BME280;2932;52.400;9.558;2023-04-10T02:52:48;101727.81;;;11.20;63.05
5812;BME280;2932;52.400;9.558;2023-04-10T02:55:13;101720.31;;;11.20;63.08
5812;BME280;2932;52.400;9.558;2023-04-10T02:57:39;101713.00;;;11.16;63.24
5812;BME280;2932;52.400;9.558;2023-04-10T03:00:07;101717.75;;;11.15;63.09
5812;BME280;2932;52.400;9.558;2023-04-10T03:02:32;101722.78;;;11.13;62.94
5812;BME280;2932;52.400;9.558;2023-04-10T03:05:02;101714.66;;;11.17;62.83
5812;BME280;2932;52.400;9.558;2023-04-10T03:07:27;101711.69;;;11.13;62.79
5812;BME280;2932;52.400;9.558;2023-04-10T03:09:53;101711.06;;;11.16;62.69
5812;BME280;2932;52.400;9.558;2023-04-10T03:12:18;101701.91;;;11.07;62.81
5812;BME280;2932;52.400;9.558;2023-04-10T03:14:44;101708.63;;;11.15;62.78
5812;BME280;2932;52.400;9.558;2023-04-10T03:17:09;101704.53;;;11.21;62.56
5812;BME280;2932;52.400;9.558;2023-04-10T03:19:36;101699.16;;;11.16;62.45
5812;BME280;2932;52.400;9.558;2023-04-10T03:22:01;101696.53;;;11.11;62.93
5812;BME280;2932;52.400;9.558;2023-04-10T03:24:27;101692.00;;;11.15;62.41
5812;BME280;2932;52.400;9.558;2023-04-10T03:26:53;101699.97;;;11.16;62.53
5812;BME280;2932;52.400;9.558;2023-04-10T03:29:18;101695.25;;;11.17;62.35
5812;BME280;2932;52.400;9.558;2023-04-10T03:31:44;101690.69;;;11.12;62.57
5812;BME280;2932;52.400;9.558;2023-04-10T03:34:09;101687.91;;;11.29;62.08
5812;BME280;2932;52.400;9.558;2023-04-10T03:36:34;101683.53;;;11.37;61.93
5812;BME280;2932;52.400;9.558;2023-04-10T03:39:00;101679.94;;;11.45;61.74
5812;BME280;2932;52.400;9.558;2023-04-10T03:41:25;101682.53;;;11.33;62.09
5812;BME280;2932;52.400;9.558;2023-04-10T03:43:50;101682.22;;;11.34;61.98
5812;BME280;2932;52.400;9.558;2023-04-10T03:46:15;101678.31;;;11.35;61.99
5812;BME280;2932;52.400;9.558;2023-04-10T03:48:41;101682.22;;;11.26;62.16
5812;BME280;2932;52.400;9.558;2023-04-10T03:51:06;101677.31;;;11.31;62.10
5812;BME280;2932;52.400;9.558;2023-04-10T03:53:32;101675.22;;;11.37;61.93
5812;BME280;2932;52.400;9.558;2023-04-10T03:56:00;101680.75;;;11.37;61.96
5812;BME280;2932;52.400;9.558;2023-04-10T03:58:26;101679.13;;;11.45;61.89
5812;BME280;2932;52.400;9.558;2023-04-10T04:00:51;101678.16;;;11.41;61.85
5812;BME280;2932;52.400;9.558;2023-04-10T04:03:16;101678.66;;;11.51;61.58
5812;BME280;2932;52.400;9.558;2023-04-10T04:05:42;101672.94;;;11.48;61.85
5812;BME280;2932;52.400;9.558;2023-04-10T04:08:07;101678.47;;;11.56;61.53
5812;BME280;2932;52.400;9.558;2023-04-10T04:10:32;101668.84;;;11.62;61.40
5812;BME280;2932;52.400;9.558;2023-04-10T04:12:58;101672.91;;;11.65;61.51
5812;BME280;2932;52.400;9.558;2023-04-10T04:15:23;101667.84;;;11.67;61.65
5812;BME280;2932;52.400;9.558;2023-04-10T04:17:48;101666.06;;;11.71;61.29
5812;BME280;2932;52.400;9.558;2023-04-10T04:20:14;101663.63;;;11.69;61.38
5812;BME280;2932;52.400;9.558;2023-04-10T04:22:40;101665.06;;;11.76;61.16
5812;BME280;2932;52.400;9.558;2023-04-10T04:25:08;101661.19;;;11.77;61.05
5812;BME280;2932;52.400;9.558;2023-04-10T04:27:35;101663.97;;;11.77;61.09
5812;BME280;2932;52.400;9.558;2023-04-10T04:30:01;101667.03;;;11.75;60.86
5812;BME280;2932;52.400;9.558;2023-04-10T04:32:27;101663.78;;;11.73;60.98
5812;BME280;2932;52.400;9.558;2023-04-10T04:34:52;101668.69;;;11.59;61.19
5812;BME280;2932;52.400;9.558;2023-04-10T04:37:17;101674.38;;;11.71;61.25
5812;BME280;2932;52.400;9.558;2023-04-10T04:39:43;101674.69;;;11.69;61.23
5812;BME280;2932;52.400;9.558;2023-04-10T04:42:08;101678.94;;;11.76;61.04
5812;BME280;2932;52.400;9.558;2023-04-10T04:44:34;101670.00;;;11.79;60.92
5812;BME280;2932;52.400;9.558;2023-04-10T04:46:59;101673.59;;;11.79;61.26
5812;BME280;2932;52.400;9.558;2023-04-10T04:49:25;101676.34;;;11.88;60.95
5812;BME280;2932;52.400;9.558;2023-04-10T04:51:50;101676.81;;;11.98;60.88
5812;BME280;2932;52.400;9.558;2023-04-10T04:54:15;101679.94;;;11.80;60.91
5812;BME280;2932;52.400;9.558;2023-04-10T04:56:43;101672.44;;;11.80;61.23
5812;BME280;2932;52.400;9.558;2023-04-10T04:59:08;101669.50;;;11.85;61.04
5812;BME280;2932;52.400;9.558;2023-04-10T05:01:33;101667.81;;;12.01;60.72
5812;BME280;2932;52.400;9.558;2023-04-10T05:03:59;101671.75;;;12.00;60.54
5812;BME280;2932;52.400;9.558;2023-04-10T05:06:24;101665.56;;;11.95;60.62
5812;BME280;2932;52.400;9.558;2023-04-10T05:08:50;101670.41;;;12.15;60.28
5812;BME280;2932;52.400;9.558;2023-04-10T05:11:17;101668.97;;;12.00;60.66
5812;BME280;2932;52.400;9.558;2023-04-10T05:13:42;101672.66;;;12.22;60.53
5812;BME280;2932;52.400;9.558;2023-04-10T05:16:08;101668.25;;;12.29;60.14
5812;BME280;2932;52.400;9.558;2023-04-10T05:18:34;101677.06;;;12.31;60.21
5812;BME280;2932;52.400;9.558;2023-04-10T05:21:00;101673.47;;;12.22;60.35
5812;BME280;2932;52.400;9.558;2023-04-10T05:23:26;101668.88;;;12.35;59.97
5812;BME280;2932;52.400;9.558;2023-04-10T05:25:51;101672.50;;;12.27;60.09
5812;BME280;2932;52.400;9.558;2023-04-10T05:28:16;101671.31;;;12.37;60.03
5812;BME280;2932;52.400;9.558;2023-04-10T05:30:42;101671.31;;;12.37;60.10
5812;BME280;2932;52.400;9.558;2023-04-10T05:33:07;101682.28;;;12.33;60.00
5812;BME280;2932;52.400;9.558;2023-04-10T05:35:32;101671.81;;;12.39;60.18
5812;BME280;2932;52.400;9.558;2023-04-10T05:37:58;101678.16;;;12.39;59.98
5812;BME280;2932;52.400;9.558;2023-04-10T05:40:24;101679.84;;;12.61;59.59
5812;BME280;2932;52.400;9.558;2023-04-10T05:42:50;101676.56;;;12.67;59.53
5812;BME280;2932;52.400;9.558;2023-04-10T05:45:16;101676.22;;;12.69;59.34
5812;BME280;2932;52.400;9.558;2023-04-10T05:47:42;101681.97;;;12.64;59.40
5812;BME280;2932;52.400;9.558;2023-04-10T05:50:08;101679.41;;;12.80;59.17
5812;BME280;2932;52.400;9.558;2023-04-10T05:52:34;101679.16;;;12.73;59.41
5812;BME280;2932;52.400;9.558;2023-04-10T05:54:59;101680.38;;;12.84;59.14
5812;BME280;2932;52.400;9.558;2023-04-10T05:57:25;101676.94;;;12.87;59.15
5812;BME280;2932;52.400;9.558;2023-04-10T05:59:50;101672.53;;;12.86;59.07
5812;BME280;2932;52.400;9.558;2023-04-10T06:02:15;101671.72;;;12.85;59.00
5812;BME280;2932;52.400;9.558;2023-04-10T06:04:41;101680.81;;;12.94;59.04
5812;BME280;2932;52.400;9.558;2023-04-10T06:07:06;101672.63;;;12.98;59.15
5812;BME280;2932;52.400;9.558;2023-04-10T06:09:32;101672.22;;;13.08;58.90
5812;BME280;2932;52.400;9.558;2023-04-10T06:11:57;101667.50;;;13.09;58.92
5812;BME280;2932;52.400;9.558;2023-04-10T06:14:22;101654.28;;;13.06;58.93
5812;BME280;2932;52.400;9.558;2023-04-10T06:16:48;101656.84;;;13.11;58.93
5812;BME280;2932;52.400;9.558;2023-04-10T06:19:13;101652.88;;;13.20;58.81
5812;BME280;2932;52.400;9.558;2023-04-10T06:21:38;101649.34;;;13.11;58.83
5812;BME280;2932;52.400;9.558;2023-04-10T06:24:04;101650.44;;;13.19;58.51
5812;BME280;2932;52.400;9.558;2023-04-10T06:26:29;101640.72;;;13.04;58.89
5812;BME280;2932;52.400;9.558;2023-04-10T06:28:54;101643.50;;;13.25;58.49
5812;BME280;2932;52.400;9.558;2023-04-10T06:31:20;101644.50;;;12.99;59.08
5812;BME280;2932;52.400;9.558;2023-04-10T06:33:49;101640.03;;;13.07;58.76
5812;BME280;2932;52.400;9.558;2023-04-10T06:36:15;101642.56;;;13.21;58.74
5812;BME280;2932;52.400;9.558;2023-04-10T06:38:41;101640.47;;;13.39;58.25
5812;BME280;2932;52.400;9.558;2023-04-10T06:41:06;101639.44;;;13.43;58.14
5812;BME280;2932;52.400;9.558;2023-04-10T06:43:37;101641.75;;;13.41;58.26
5812;BME280;2932;52.400;9.558;2023-04-10T06:46:03;101635.31;;;13.49;58.32
5812;BME280;2932;52.400;9.558;2023-04-10T06:48:29;101629.63;;;13.46;58.13
5812;BME280;2932;52.400;9.558;2023-04-10T06:50:55;101634.63;;;13.52;57.81
5812;BME280;2932;52.400;9.558;2023-04-10T06:53:20;101626.75;;;13.54;58.13
5812;BME280;2932;52.400;9.558;2023-04-10T06:55:46;101628.13;;;13.48;58.08
5812;BME280;2932;52.400;9.558;2023-04-10T06:58:11;101628.19;;;13.40;58.10
5812;BME280;2932;52.400;9.558;2023-04-10T07:00:37;101623.19;;;13.66;58.17
5812;BME280;2932;52.400;9.558;2023-04-10T07:05:29;101621.06;;;13.84;58.06
5812;BME280;2932;52.400;9.558;2023-04-10T07:07:54;101623.72;;;13.80;57.99
5812;BME280;2932;52.400;9.558;2023-04-10T07:10:19;101619.22;;;13.88;57.33
5812;BME280;2932;52.400;9.558;2023-04-10T07:12:45;101623.19;;;13.99;57.60
5812;BME280;2932;52.400;9.558;2023-04-10T07:15:10;101619.69;;;14.02;57.68
5812;BME280;2932;52.400;9.558;2023-04-10T07:17:36;101612.84;;;13.99;57.74
5812;BME280;2932;52.400;9.558;2023-04-10T07:20:02;101633.53;;;14.23;57.32
5812;BME280;2932;52.400;9.558;2023-04-10T07:22:28;101615.56;;;14.20;57.12
5812;BME280;2932;52.400;9.558;2023-04-10T07:24:53;101615.78;;;14.27;57.09
5812;BME280;2932;52.400;9.558;2023-04-10T07:27:18;101614.06;;;14.47;57.19
5812;BME280;2932;52.400;9.558;2023-04-10T07:29:44;101616.06;;;14.59;56.65
5812;BME280;2932;52.400;9.558;2023-04-10T07:32:10;101616.28;;;14.54;56.49
5812;BME280;2932;52.400;9.558;2023-04-10T07:34:36;101617.69;;;14.60;55.86
5812;BME280;2932;52.400;9.558;2023-04-10T07:37:01;101604.56;;;14.60;56.02
5812;BME280;2932;52.400;9.558;2023-04-10T07:39:26;101614.97;;;14.88;55.77
5812;BME280;2932;52.400;9.558;2023-04-10T07:41:53;101599.41;;;14.87;55.47
5812;BME280;2932;52.400;9.558;2023-04-10T07:44:21;101609.91;;;14.78;54.82
5812;BME280;2932;52.400;9.558;2023-04-10T07:46:47;101601.44;;;14.74;54.82
5812;BME280;2932;52.400;9.558;2023-04-10T07:49:12;101608.22;;;14.89;54.93
5812;BME280;2932;52.400;9.558;2023-04-10T07:51:37;101595.56;;;14.91;54.83
5812;BME280;2932;52.400;9.558;2023-04-10T07:54:03;101611.88;;;14.65;55.35
5812;BME280;2932;52.400;9.558;2023-04-10T07:56:29;101603.59;;;14.81;55.28
5812;BME280;2932;52.400;9.558;2023-04-10T07:58:58;101608.44;;;15.08;54.94
5812;BME280;2932;52.400;9.558;2023-04-10T08:01:23;101598.31;;;15.16;54.57
5812;BME280;2932;52.400;9.558;2023-04-10T08:03:49;101580.56;;;15.36;53.91
5812;BME280;2932;52.400;9.558;2023-04-10T08:06:14;101590.75;;;15.44;54.03
5812;BME280;2932;52.400;9.558;2023-04-10T08:08:40;101587.41;;;15.66;53.52
5812;BME280;2932;52.400;9.558;2023-04-10T08:11:20;101588.41;;;15.74;53.01
5812;BME280;2932;52.400;9.558;2023-04-10T08:13:47;101588.66;;;15.69;52.94
5812;BME280;2932;52.400;9.558;2023-04-10T08:16:13;101581.28;;;15.61;53.34
5812;BME280;2932;52.400;9.558;2023-04-10T08:18:39;101574.22;;;15.79;53.05
5812;BME280;2932;52.400;9.558;2023-04-10T08:21:05;101578.72;;;15.84;52.71
5812;BME280;2932;52.400;9.558;2023-04-10T08:23:30;101580.78;;;15.87;52.76
5812;BME280;2932;52.400;9.558;2023-04-10T08:25:56;101581.44;;;15.96;52.69
5812;BME280;2932;52.400;9.558;2023-04-10T08:28:21;101578.72;;;15.99;53.19
5812;BME280;2932;52.400;9.558;2023-04-10T08:30:46;101567.09;;;16.13;53.08
5812;BME280;2932;52.400;9.558;2023-04-10T08:33:12;101572.50;;;16.06;53.04
5812;BME280;2932;52.400;9.558;2023-04-10T08:35:37;101574.25;;;16.46;52.67
5812;BME280;2932;52.400;9.558;2023-04-10T08:38:02;101568.84;;;16.69;52.03
5812;BME280;2932;52.400;9.558;2023-04-10T08:40:28;101558.28;;;16.78;51.23
5812;BME280;2932;52.400;9.558;2023-04-10T08:42:53;101559.69;;;16.87;51.38
5812;BME280;2932;52.400;9.558;2023-04-10T08:45:19;101552.78;;;17.00;51.28
5812;BME280;2932;52.400;9.558;2023-04-10T08:47:47;101549.25;;;17.04;50.86
5812;BME280;2932;52.400;9.558;2023-04-10T08:50:14;101563.03;;;17.12;50.70
5812;BME280;2932;52.400;9.558;2023-04-10T08:52:43;101544.47;;;17.04;51.24
5812;BME280;2932;52.400;9.558;2023-04-10T08:55:11;101542.72;;;17.15;50.88
5812;BME280;2932;52.400;9.558;2023-04-10T08:57:37;101544.16;;;17.48;50.87
5812;BME280;2932;52.400;9.558;2023-04-10T09:00:03;101536.00;;;17.62;50.64
5812;BME280;2932;52.400;9.558;2023-04-10T09:02:28;101527.47;;;17.74;50.19
5812;BME280;2932;52.400;9.558;2023-04-10T09:04:54;101531.50;;;17.77;50.61
5812;BME280;2932;52.400;9.558;2023-04-10T09:07:23;101527.16;;;17.79;49.81
5812;BME280;2932;52.400;9.558;2023-04-10T09:09:48;101522.63;;;17.94;49.96
5812;BME280;2932;52.400;9.558;2023-04-10T09:12:15;101510.31;;;17.76;49.65
5812;BME280;2932;52.400;9.558;2023-04-10T09:14:41;101511.50;;;18.01;50.28
5812;BME280;2932;52.400;9.558;2023-04-10T09:17:15;101494.03;;;18.08;49.05
5812;BME280;2932;52.400;9.558;2023-04-10T09:19:42;101485.09;;;18.25;48.60
5812;BME280;2932;52.400;9.558;2023-04-10T09:22:08;101491.34;;;18.15;48.59
5812;BME280;2932;52.400;9.558;2023-04-10T09:24:35;101490.94;;;18.43;48.44
5812;BME280;2932;52.400;9.558;2023-04-10T09:27:02;101478.47;;;18.37;48.54
5812;BME280;2932;52.400;9.558;2023-04-10T09:29:47;101475.00;;;18.47;48.77
5812;BME280;2932;52.400;9.558;2023-04-10T09:32:37;101462.97;;;18.46;48.01
5812;BME280;2932;52.400;9.558;2023-04-10T09:35:03;101458.28;;;18.54;48.02
5812;BME280;2932;52.400;9.558;2023-04-10T09:37:34;101452.94;;;18.72;47.33
5812;BME280;2932;52.400;9.558;2023-04-10T09:40:00;101453.03;;;18.79;46.79
5812;BME280;2932;52.400;9.558;2023-04-10T09:42:43;101452.84;;;18.98;46.60
5812;BME280;2932;52.400;9.558;2023-04-10T09:45:09;101460.78;;;18.92;46.89
5812;BME280;2932;52.400;9.558;2023-04-10T09:47:34;101444.34;;;19.28;46.99
5812;BME280;2932;52.400;9.558;2023-04-10T09:50:00;101450.03;;;19.35;46.22
5812;BME280;2932;52.400;9.558;2023-04-10T09:52:34;101445.28;;;19.39;45.71
5812;BME280;2932;52.400;9.558;2023-04-10T09:55:04;101441.03;;;19.52;46.12
5812;BME280;2932;52.400;9.558;2023-04-10T09:57:32;101433.13;;;19.69;45.54
5812;BME280;2932;52.400;9.558;2023-04-10T10:00:03;101425.16;;;19.74;45.43
5812;BME280;2932;52.400;9.558;2023-04-10T10:02:36;101418.44;;;19.86;45.24
5812;BME280;2932;52.400;9.558;2023-04-10T10:05:04;101416.41;;;19.83;44.98
5812;BME280;2932;52.400;9.558;2023-04-10T10:07:30;101418.06;;;19.91;44.60
5812;BME280;2932;52.400;9.558;2023-04-10T10:09:56;101408.38;;;19.85;44.46
5812;BME280;2932;52.400;9.558;2023-04-10T10:12:28;101409.53;;;19.77;44.33
5812;BME280;2932;52.400;9.558;2023-04-10T10:20:35;101396.56;;;19.61;44.83
5812;BME280;2932;52.400;9.558;2023-04-10T10:23:05;101383.34;;;19.62;44.50
5812;BME280;2932;52.400;9.558;2023-04-10T10:25:33;101380.69;;;19.83;43.76
5812;BME280;2932;52.400;9.558;2023-04-10T10:28:02;101390.38;;;19.89;43.29
5812;BME280;2932;52.400;9.558;2023-04-10T10:30:31;101370.84;;;20.18;42.58
5812;BME280;2932;52.400;9.558;2023-04-10T10:32:57;101354.41;;;20.20;42.19
5812;BME280;2932;52.400;9.558;2023-04-10T10:35:25;101347.72;;;20.39;41.93
5812;BME280;2932;52.400;9.558;2023-04-10T10:37:51;101336.47;;;20.39;44.33
5812;BME280;2932;52.400;9.558;2023-04-10T10:40:25;101346.94;;;20.56;44.24
5812;BME280;2932;52.400;9.558;2023-04-10T10:42:59;101323.28;;;20.64;42.85
5812;BME280;2932;52.400;9.558;2023-04-10T10:48:03;101315.25;;;20.62;42.88
5812;BME280;2932;52.400;9.558;2023-04-10T10:50:49;101318.84;;;20.56;42.89
5812;BME280;2932;52.400;9.558;2023-04-10T10:53:34;101296.38;;;20.63;41.67
5812;BME280;2932;52.400;9.558;2023-04-10T10:58:56;101312.00;;;20.53;41.87
5812;BME280;2932;52.400;9.558;2023-04-10T11:01:23;101302.00;;;20.84;42.07
5812;BME280;2932;52.400;9.558;2023-04-10T11:03:48;101296.81;;;20.90;41.98
5812;BME280;2932;52.400;9.558;2023-04-10T11:06:20;101286.78;;;21.21;41.39
5812;BME280;2932;52.400;9.558;2023-04-10T11:14:11;101267.09;;;21.17;41.30
5812;BME280;2932;52.400;9.558;2023-04-10T11:19:00;101263.88;;;21.26;40.94
5812;BME280;2932;52.400;9.558;2023-04-10T11:21:26;101254.94;;;21.63;40.72
5812;BME280;2932;52.400;9.558;2023-04-10T11:31:53;101213.94;;;21.55;40.77
5812;BME280;2932;52.400;9.558;2023-04-10T11:34:19;101219.91;;;21.71;40.72
5812;BME280;2932;52.400;9.558;2023-04-10T11:36:45;101210.50;;;22.10;39.81
5812;BME280;2932;52.400;9.558;2023-04-10T11:39:13;101221.41;;;22.04;39.83
5812;BME280;2932;52.400;9.558;2023-04-10T11:41:51;101212.41;;;22.34;39.21
5812;BME280;2932;52.400;9.558;2023-04-10T11:44:23;101220.50;;;22.25;39.28
5812;BME280;2932;52.400;9.558;2023-04-10T11:46:50;101202.13;;;21.92;38.82
5812;BME280;2932;52.400;9.558;2023-04-10T11:49:34;101193.06;;;22.33;38.45
5812;BME280;2932;52.400;9.558;2023-04-10T11:52:01;101203.13;;;22.37;38.59
5812;BME280;2932;52.400;9.558;2023-04-10T11:54:28;101200.38;;;22.26;39.00
5812;BME280;2932;52.400;9.558;2023-04-10T11:57:04;101199.22;;;22.13;38.99
5812;BME280;2932;52.400;9.558;2023-04-10T11:59:31;101201.19;;;22.23;38.83
5812;BME280;2932;52.400;9.558;2023-04-10T12:02:08;101192.59;;;22.41;39.10
5812;BME280;2932;52.400;9.558;2023-04-10T12:04:34;101179.97;;;22.60;38.42
5812;BME280;2932;52.400;9.558;2023-04-10T12:07:00;101181.53;;;22.68;38.29
5812;BME280;2932;52.400;9.558;2023-04-10T12:09:26;101175.84;;;22.79;38.68
5812;BME280;2932;52.400;9.558;2023-04-10T12:11:58;101165.69;;;22.85;37.85
5812;BME280;2932;52.400;9.558;2023-04-10T12:14:34;101160.31;;;22.98;37.59
5812;BME280;2932;52.400;9.558;2023-04-10T12:17:01;101161.56;;;22.41;37.44
5812;BME280;2932;52.400;9.558;2023-04-10T12:19:28;101149.41;;;22.51;37.88
5812;BME280;2932;52.400;9.558;2023-04-10T12:21:54;101153.00;;;22.59;38.02
5812;BME280;2932;52.400;9.558;2023-04-10T12:27:26;101134.97;;;22.46;37.95
5812;BME280;2932;52.400;9.558;2023-04-10T12:29:54;101139.66;;;22.11;38.41
5812;BME280;2932;52.400;9.558;2023-04-10T12:32:20;101140.78;;;22.21;38.38
5812;BME280;2932;52.400;9.558;2023-04-10T12:37:15;101140.22;;;21.74;39.42
5812;BME280;2932;52.400;9.558;2023-04-10T12:39:41;101133.72;;;21.91;39.51
5812;BME280;2932;52.400;9.558;2023-04-10T12:42:16;101142.97;;;21.92;39.08
5812;BME280;2932;52.400;9.558;2023-04-10T12:44:53;101127.25;;;21.98;39.15
5812;BME280;2932;52.400;9.558;2023-04-10T12:47:18;101123.56;;;22.08;39.22
5812;BME280;2932;52.400;9.558;2023-04-10T12:50:09;101117.97;;;22.01;38.35
5812;BME280;2932;52.400;9.558;2023-04-10T12:52:37;101116.75;;;22.02;38.54
5812;BME280;2932;52.400;9.558;2023-04-10T12:57:42;101112.91;;;21.64;39.46
5812;BME280;2932;52.400;9.558;2023-04-10T13:00:09;101100.94;;;21.49;39.51
5812;BME280;2932;52.400;9.558;2023-04-10T13:02:36;101093.31;;;21.43;39.75
5812;BME280;2932;52.400;9.558;2023-04-10T13:05:02;101115.06;;;21.35;39.94
5812;BME280;2932;52.400;9.558;2023-04-10T13:07:27;101091.34;;;21.33;39.54
5812;BME280;2932;52.400;9.558;2023-04-10T13:09:53;101085.72;;;21.29;39.71
5812;BME280;2932;52.400;9.558;2023-04-10T13:12:18;101077.69;;;21.31;39.93
5812;BME280;2932;52.400;9.558;2023-04-10T13:14:43;101081.59;;;21.58;39.81
5812;BME280;2932;52.400;9.558;2023-04-10T13:17:09;101067.81;;;21.71;39.79
5812;BME280;2932;52.400;9.558;2023-04-10T13:19:34;101051.16;;;21.98;39.39
5812;BME280;2932;52.400;9.558;2023-04-10T13:21:59;101075.03;;;21.79;39.27
5812;BME280;2932;52.400;9.558;2023-04-10T13:24:26;101052.31;;;22.01;39.20
5812;BME280;2932;52.400;9.558;2023-04-10T13:26:51;101045.84;;;22.11;39.15
5812;BME280;2932;52.400;9.558;2023-04-10T13:29:17;101037.31;;;22.21;39.01
5812;BME280;2932;52.400;9.558;2023-04-10T13:31:42;101035.78;;;22.54;38.69
5812;BME280;2932;52.400;9.558;2023-04-10T13:34:08;101032.97;;;22.54;38.73
5812;BME280;2932;52.400;9.558;2023-04-10T13:36:33;101020.88;;;22.54;38.49
5812;BME280;2932;52.400;9.558;2023-04-10T13:38:58;101012.25;;;22.72;38.58
5812;BME280;2932;52.400;9.558;2023-04-10T13:41:24;100991.81;;;22.60;38.70
5812;BME280;2932;52.400;9.558;2023-04-10T13:43:49;101010.22;;;22.35;39.03
5812;BME280;2932;52.400;9.558;2023-04-10T13:46:14;100997.44;;;22.60;39.06
5812;BME280;2932;52.400;9.558;2023-04-10T13:48:40;100982.56;;;22.56;38.73
5812;BME280;2932;52.400;9.558;2023-04-10T13:51:06;100979.69;;;22.26;38.95
5812;BME280;2932;52.400;9.558;2023-04-10T13:53:33;100974.78;;;22.34;39.04
5812;BME280;2932;52.400;9.558;2023-04-10T13:55:58;100974.84;;;22.26;39.29